Time;durP1;ratioP1;P1;durP2;ratioP2;P2;SDS_P1;SDS_P2;PMS_P1;PMS_P2;Temp;Humidity;BMP_temperature;BMP_pressure;BME280_temperature;BME280_humidity;BME280_pressure;Samples;Min_cycle;Max_cycle;Signal;HPM_P1;HPM_P2
2022/06/15 00:00:28;;;;;;;8.10;7.33;;;13.90;1.00;;;;;;6326909;28;20326;-57
2022/06/15 00:03:33;;;;;;;7.43;6.93;;;13.90;1.00;;;;;;6327281;28;20319;-56
2022/06/15 00:06:39;;;;;;;8.60;7.73;;;13.80;1.00;;;;;;6332731;28;20386;-57
2022/06/15 00:09:43;;;;;;;8.20;7.60;;;13.80;1.00;;;;;;6316449;28;20247;-56
2022/06/15 00:12:46;;;;;;;9.07;8.27;;;13.80;1.00;;;;;;6333107;28;20292;-56
2022/06/15 00:15:49;;;;;;;8.47;7.67;;;13.80;1.00;;;;;;6328621;28;20236;-55
2022/06/15 00:18:52;;;;;;;9.07;8.20;;;13.80;1.00;;;;;;6306598;28;20248;-55
2022/06/15 00:21:55;;;;;;;9.17;8.23;;;13.80;1.00;;;;;;6331160;28;20582;-55
2022/06/15 00:25:00;;;;;;;8.17;7.57;;;13.70;1.00;;;;;;6320641;28;20240;-56
2022/06/15 00:28:03;;;;;;;8.00;7.40;;;13.70;1.00;;;;;;6309176;28;20641;-55
2022/06/15 00:31:06;;;;;;;8.20;7.47;;;13.70;1.00;;;;;;6312456;28;20324;-55
2022/06/15 00:34:11;;;;;;;7.93;7.30;;;13.70;1.00;;;;;;6325447;28;20681;-56
2022/06/15 00:37:14;;;;;;;7.87;7.27;;;13.70;1.00;;;;;;6309601;28;20241;-55
2022/06/15 00:40:18;;;;;;;7.17;6.63;;;13.70;1.00;;;;;;6324957;28;20715;-55
2022/06/15 00:43:36;;;;;;;7.10;6.50;;;13.60;1.00;;;;;;6339688;28;20228;-57
2022/06/15 00:46:42;;;;;;;7.13;6.70;;;13.60;1.00;;;;;;6337061;28;20247;-56
2022/06/15 00:49:51;;;;;;;7.27;6.77;;;13.60;1.00;;;;;;6318008;28;20243;-56
2022/06/15 00:52:58;;;;;;;7.03;6.37;;;13.60;1.00;;;;;;6310088;28;20352;-56
2022/06/15 00:56:03;;;;;;;6.90;6.40;;;13.50;1.00;;;;;;6313747;28;20650;-57
2022/06/15 00:59:10;;;;;;;7.03;6.50;;;13.50;1.00;;;;;;6333812;28;20291;-56
2022/06/15 01:02:13;;;;;;;6.07;5.77;;;13.50;1.00;;;;;;6338010;28;20709;-59
2022/06/15 01:05:18;;;;;;;6.27;5.80;;;13.50;1.00;;;;;;6336632;28;20288;-56
2022/06/15 01:08:31;;;;;;;6.30;5.90;;;13.50;1.00;;;;;;6320084;28;20240;-56
2022/06/15 01:12:01;;;;;;;6.30;5.90;;;13.50;1.00;;;;;;6332097;28;20319;-52
2022/06/15 01:15:14;;;;;;;6.87;6.23;;;13.40;1.00;;;;;;6332922;28;20324;-55
2022/06/15 01:18:30;;;;;;;5.87;5.57;;;13.40;1.00;;;;;;6310708;28;20375;-55
2022/06/15 01:21:40;;;;;;;5.60;5.30;;;13.40;1.00;;;;;;6334264;28;20756;-54
2022/06/15 01:24:59;;;;;;;6.03;5.63;;;13.40;1.00;;;;;;6317278;28;20919;-55
2022/06/15 01:28:28;;;;;;;6.43;5.93;;;13.30;1.00;;;;;;6309813;28;20316;-57
2022/06/15 01:31:37;;;;;;;5.77;5.37;;;13.30;1.00;;;;;;6311385;28;20251;-58
2022/06/15 01:34:46;;;;;;;5.43;5.13;;;13.30;1.00;;;;;;6331515;28;20330;-56
2022/06/15 01:37:58;;;;;;;6.10;5.70;;;13.30;1.00;;;;;;6307878;28;20235;-55
2022/06/15 01:41:09;;;;;;;5.53;5.23;;;13.30;1.00;;;;;;6331468;28;20232;-55
2022/06/15 01:44:16;;;;;;;5.87;5.47;;;13.20;1.00;;;;;;6335182;28;20707;-55
2022/06/15 01:47:23;;;;;;;6.43;6.03;;;13.20;1.00;;;;;;6332614;28;20247;-56
2022/06/15 01:50:28;;;;;;;5.87;5.33;;;13.20;1.00;;;;;;6310841;28;20525;-54
2022/06/15 01:53:35;;;;;;;6.23;5.83;;;13.20;1.00;;;;;;6309636;28;20854;-56
2022/06/15 01:56:41;;;;;;;5.90;5.40;;;13.10;1.00;;;;;;6317320;28;20337;-55
2022/06/15 01:59:50;;;;;;;5.83;5.40;;;13.10;1.00;;;;;;6334079;28;20272;-55
2022/06/15 02:03:06;;;;;;;6.03;5.63;;;13.10;1.00;;;;;;6335184;28;20785;-55
2022/06/15 02:06:18;;;;;;;5.93;5.50;;;13.00;1.00;;;;;;6335017;28;20236;-56
2022/06/15 02:09:28;;;;;;;5.70;5.20;;;13.00;1.00;;;;;;6327854;28;20378;-56
2022/06/15 02:12:39;;;;;;;5.10;4.90;;;13.00;1.00;;;;;;6335900;28;20561;-56
2022/06/15 02:15:46;;;;;;;5.20;5.00;;;13.00;1.00;;;;;;6334821;28;20319;-56
2022/06/15 02:18:52;;;;;;;6.43;5.93;;;13.00;1.00;;;;;;6313681;28;20264;-57
2022/06/15 02:21:56;;;;;;;5.40;4.90;;;13.00;1.00;;;;;;6332918;28;20762;-54
2022/06/15 02:25:03;;;;;;;5.03;4.73;;;12.90;1.00;;;;;;6327441;28;20370;-56
2022/06/15 02:28:07;;;;;;;5.53;5.17;;;13.00;1.00;;;;;;6307808;28;20323;-56
2022/06/15 02:31:09;;;;;;;5.07;4.80;;;12.90;1.00;;;;;;6308154;28;20248;-56
2022/06/15 02:34:15;;;;;;;5.30;4.90;;;12.90;1.00;;;;;;6321072;28;20350;-56
2022/06/15 02:37:18;;;;;;;5.30;5.00;;;12.80;1.00;;;;;;6333039;28;20252;-55
2022/06/15 02:40:23;;;;;;;5.50;5.10;;;12.80;1.00;;;;;;6330778;28;20228;-56
2022/06/15 02:43:29;;;;;;;6.07;5.67;;;12.80;1.00;;;;;;6324926;28;20243;-55
2022/06/15 02:46:35;;;;;;;6.23;5.73;;;12.80;1.00;;;;;;6310337;28;20743;-55
2022/06/15 02:49:39;;;;;;;6.27;5.67;;;12.80;1.00;;;;;;6307699;28;20323;-54
2022/06/15 02:52:46;;;;;;;5.70;5.20;;;12.80;1.00;;;;;;6307432;28;20236;-56
2022/06/15 02:55:51;;;;;;;5.20;4.93;;;12.80;1.00;;;;;;6308643;28;20251;-55
2022/06/15 02:58:57;;;;;;;6.30;5.73;;;12.70;1.00;;;;;;6318178;28;20332;-56
2022/06/15 03:02:00;;;;;;;5.70;5.40;;;12.70;1.00;;;;;;6329896;28;20279;-56
2022/06/15 03:05:06;;;;;;;5.30;5.00;;;12.70;1.00;;;;;;6333261;28;20228;-56
2022/06/15 03:08:08;;;;;;;5.70;5.20;;;12.70;1.00;;;;;;6314839;28;20349;-56
2022/06/15 03:11:12;;;;;;;4.97;4.73;;;12.70;1.00;;;;;;6330365;28;20276;-57
2022/06/15 03:14:15;;;;;;;5.10;4.80;;;12.70;1.00;;;;;;6333583;28;20898;-56
2022/06/15 03:17:18;;;;;;;4.70;4.60;;;12.70;1.00;;;;;;6315465;28;20310;-56
2022/06/15 03:20:23;;;;;;;5.20;4.70;;;12.70;1.00;;;;;;6320728;28;20224;-57
2022/06/15 03:23:27;;;;;;;4.90;4.60;;;12.70;1.00;;;;;;6332568;28;21936;-56
2022/06/15 03:26:30;;;;;;;4.80;4.60;;;12.70;1.00;;;;;;6311961;28;20255;-54
2022/06/15 03:29:32;;;;;;;4.33;4.17;;;12.70;1.00;;;;;;6307478;28;20806;-55
2022/06/15 03:32:36;;;;;;;5.03;4.83;;;12.70;1.00;;;;;;6300797;28;20229;-54
2022/06/15 03:35:40;;;;;;;5.17;4.87;;;12.70;1.00;;;;;;6324329;28;20326;-56
2022/06/15 03:38:43;;;;;;;5.00;4.80;;;12.80;1.00;;;;;;6341411;28;20737;-56
2022/06/15 03:41:46;;;;;;;3.93;3.83;;;12.80;1.00;;;;;;6315058;28;20228;-58
2022/06/15 03:44:50;;;;;;;5.33;4.90;;;12.90;1.00;;;;;;6325082;28;20290;-56
2022/06/15 03:47:55;;;;;;;5.70;5.30;;;12.90;1.00;;;;;;6329214;28;20232;-58
2022/06/15 03:50:59;;;;;;;4.87;4.60;;;12.90;1.00;;;;;;6325762;28;20713;-56
2022/06/15 03:54:02;;;;;;;5.17;4.77;;;13.00;1.00;;;;;;6325092;28;20995;-55
2022/06/15 03:57:06;;;;;;;4.80;4.60;;;13.00;1.00;;;;;;6314813;28;20232;-54
2022/06/15 04:00:13;;;;;;;5.60;5.30;;;13.10;1.00;;;;;;6316293;28;20307;-56
2022/06/15 04:03:17;;;;;;;4.90;4.50;;;13.20;1.00;;;;;;6334141;28;20227;-55
2022/06/15 04:06:22;;;;;;;5.03;4.77;;;13.30;1.00;;;;;;6325658;28;20717;-55
2022/06/15 04:09:24;;;;;;;5.43;4.93;;;13.40;1.00;;;;;;6328083;28;20288;-56
2022/06/15 04:12:27;;;;;;;5.93;5.40;;;13.50;1.00;;;;;;6332904;28;20271;-56
2022/06/15 04:15:31;;;;;;;5.20;4.80;;;13.50;1.00;;;;;;6328694;28;20235;-56
2022/06/15 04:18:34;;;;;;;5.70;5.40;;;13.60;1.00;;;;;;6327002;28;20247;-55
2022/06/15 04:21:38;;;;;;;5.30;4.97;;;13.70;1.00;;;;;;6335068;28;20939;-57
2022/06/15 04:24:41;;;;;;;6.20;5.60;;;13.70;1.00;;;;;;6328037;28;20524;-55
2022/06/15 04:27:44;;;;;;;7.47;5.57;;;13.80;1.00;;;;;;6328614;28;20643;-56
2022/06/15 04:30:47;;;;;;;6.93;4.83;;;13.80;1.00;;;;;;6327935;27;20805;-56
2022/06/15 04:33:50;;;;;;;5.80;5.13;;;13.90;1.00;;;;;;6331264;28;20312;-56
2022/06/15 04:36:54;;;;;;;7.77;5.60;;;14.00;1.00;;;;;;6335116;28;20315;-54
2022/06/15 04:39:57;;;;;;;7.17;6.07;;;14.10;1.00;;;;;;6330475;28;20319;-55
2022/06/15 04:43:00;;;;;;;8.20;5.87;;;14.20;1.00;;;;;;6333743;28;20232;-56
2022/06/15 04:46:03;;;;;;;5.73;5.10;;;14.30;1.00;;;;;;6328905;28;20238;-54
2022/06/15 04:49:07;;;;;;;5.67;4.80;;;14.50;1.00;;;;;;6317086;28;20232;-57
2022/06/15 04:52:11;;;;;;;8.97;4.77;;;14.60;1.00;;;;;;6301970;28;20232;-53
2022/06/15 04:55:19;;;;;;;5.63;5.13;;;14.80;1.00;;;;;;6327495;28;20228;-56
2022/06/15 04:58:22;;;;;;;6.77;5.10;;;15.00;1.00;;;;;;6330393;28;20238;-55
2022/06/15 05:01:25;;;;;;;4.50;4.10;;;15.30;1.00;;;;;;6330100;28;20249;-56
2022/06/15 05:04:27;;;;;;;6.13;4.53;;;15.60;1.00;;;;;;6327059;28;20235;-55
2022/06/15 05:07:32;;;;;;;4.87;3.70;;;16.00;1.00;;;;;;6318027;28;20248;-56
2022/06/15 05:10:35;;;;;;;5.27;4.07;;;16.30;1.00;;;;;;6315818;28;20518;-55
2022/06/15 05:13:38;;;;;;;5.37;4.40;;;16.60;1.00;;;;;;6324259;28;20451;-56
2022/06/15 05:16:41;;;;;;;5.00;4.20;;;16.70;1.00;;;;;;6329904;27;20248;-56
2022/06/15 05:19:44;;;;;;;5.60;4.00;;;16.90;1.00;;;;;;6328767;28;20235;-56
2022/06/15 05:22:52;;;;;;;6.83;3.70;;;17.10;1.00;;;;;;6330338;28;20240;-55
2022/06/15 05:25:55;;;;;;;5.70;3.97;;;17.40;1.00;;;;;;6316039;27;20233;-55
2022/06/15 05:28:58;;;;;;;7.10;3.27;;;17.60;1.00;;;;;;6321870;28;20347;-56
2022/06/15 05:32:01;;;;;;;8.80;3.80;;;17.90;1.00;;;;;;6325224;28;20510;-56
2022/06/15 05:35:05;;;;;;;6.20;3.10;;;18.00;1.00;;;;;;6308907;28;20316;-55
2022/06/15 05:38:09;;;;;;;7.23;3.23;;;17.90;1.00;;;;;;6327473;28;20282;-56
2022/06/15 05:41:13;;;;;;;6.33;3.37;;;17.90;1.00;;;;;;6331288;28;20229;-57
2022/06/15 05:44:16;;;;;;;4.17;3.53;;;17.80;1.00;;;;;;6330563;28;20235;-57
2022/06/15 05:47:20;;;;;;;3.30;3.00;;;17.80;1.00;;;;;;6325898;28;20233;-56
2022/06/15 05:50:23;;;;;;;4.10;3.10;;;17.80;1.00;;;;;;6328902;28;20233;-56
2022/06/15 05:53:27;;;;;;;5.83;3.13;;;17.80;1.00;;;;;;6317797;28;20224;-57
2022/06/15 05:56:33;;;;;;;3.23;3.03;;;17.80;1.00;;;;;;6327497;28;20517;-59
2022/06/15 05:59:36;;;;;;;3.90;3.43;;;17.80;1.00;;;;;;6331274;28;20247;-57
2022/06/15 06:02:40;;;;;;;6.00;3.10;;;17.90;1.00;;;;;;6319060;28;20228;-57
2022/06/15 06:05:43;;;;;;;6.33;2.90;;;18.20;1.00;;;;;;6324535;28;20347;-54
2022/06/15 06:08:47;;;;;;;3.20;2.73;;;18.50;1.00;;;;;;6311584;28;20247;-56
2022/06/15 06:11:50;;;;;;;3.20;2.90;;;18.80;1.00;;;;;;6325023;28;20365;-55
2022/06/15 06:14:53;;;;;;;5.83;3.07;;;19.00;1.00;;;;;;6319843;28;20250;-57
2022/06/15 06:17:56;;;;;;;4.43;2.60;;;19.20;1.00;;;;;;6320257;28;20233;-57
2022/06/15 06:20:59;;;;;;;6.80;3.30;;;19.30;1.00;;;;;;6322513;28;20514;-57
2022/06/15 06:24:04;;;;;;;6.53;3.03;;;19.60;1.00;;;;;;6322109;28;20236;-56
2022/06/15 06:27:08;;;;;;;5.50;2.67;;;20.20;1.00;;;;;;6318200;28;20354;-55
2022/06/15 06:30:13;;;;;;;9.63;2.93;;;20.70;1.00;;;;;;6325664;28;20232;-56
2022/06/15 06:33:16;;;;;;;2.73;2.57;;;21.10;1.00;;;;;;6309284;28;20312;-57
2022/06/15 06:36:30;;;;;;;3.27;2.40;;;21.40;1.00;;;;;;6322102;28;20239;-57
2022/06/15 06:39:36;;;;;;;6.23;2.70;;;21.70;1.00;;;;;;6318579;28;20293;-56
2022/06/15 06:42:38;;;;;;;5.13;2.80;;;22.20;1.00;;;;;;6323233;28;21078;-55
2022/06/15 06:45:42;;;;;;;6.03;2.70;;;22.30;1.00;;;;;;6324699;28;20720;-57
2022/06/15 06:48:45;;;;;;;4.67;2.70;;;22.50;1.00;;;;;;6319675;28;20653;-57
2022/06/15 06:51:49;;;;;;;3.40;2.97;;;22.40;1.00;;;;;;6319509;28;20364;-55
2022/06/15 06:54:53;;;;;;;4.47;2.20;;;22.10;1.00;;;;;;6320188;28;20323;-57
2022/06/15 06:57:57;;;;;;;4.03;2.60;;;21.70;1.00;;;;;;6327191;28;20431;-55
2022/06/15 07:01:00;;;;;;;5.10;3.03;;;21.50;1.00;;;;;;6323412;28;20239;-55
2022/06/15 07:04:03;;;;;;;3.67;2.70;;;21.40;1.00;;;;;;6327160;28;20543;-55
2022/06/15 07:07:06;;;;;;;4.10;2.70;;;21.30;1.00;;;;;;6325905;28;20934;-57
2022/06/15 07:10:12;;;;;;;6.00;2.40;;;21.30;1.00;;;;;;6320255;28;20946;-57
2022/06/15 07:13:15;;;;;;;5.30;2.63;;;21.50;1.00;;;;;;6328705;28;20277;-56
2022/06/15 07:16:19;;;;;;;3.97;2.67;;;21.50;1.00;;;;;;6325966;28;20769;-56
2022/06/15 07:19:22;;;;;;;3.53;2.80;;;21.60;1.00;;;;;;6296280;28;20286;-62
2022/06/15 07:22:25;;;;;;;2.73;2.50;;;21.70;1.00;;;;;;6328293;28;20322;-56
2022/06/15 07:25:32;;;;;;;7.63;2.67;;;21.70;1.00;;;;;;6327596;28;20326;-58
2022/06/15 07:28:35;;;;;;;4.50;2.70;;;21.60;1.00;;;;;;6309027;28;20378;-55
2022/06/15 07:31:43;;;;;;;5.10;2.80;;;21.50;1.00;;;;;;6323636;28;20349;-55
2022/06/15 07:34:46;;;;;;;3.70;2.33;;;21.30;1.00;;;;;;6320924;28;20304;-54
2022/06/15 07:37:50;;;;;;;2.83;2.10;;;21.10;1.00;;;;;;6306940;28;20244;-55
2022/06/15 07:41:15;;;;;;;3.27;2.23;;;21.00;1.00;;;;;;6317651;28;20382;-55
2022/06/15 07:44:19;;;;;;;2.67;2.40;;;21.10;1.00;;;;;;6330607;28;20301;-56
2022/06/15 07:50:43;;;;;;;6.57;2.17;;;21.20;1.00;;;;;;6323021;28;21076;-54
2022/06/15 07:53:46;;;;;;;4.77;2.40;;;21.20;1.00;;;;;;6320596;28;20228;-53
2022/06/15 07:56:52;;;;;;;5.87;2.17;;;21.10;1.00;;;;;;6326203;28;20318;-54
2022/06/15 07:59:55;;;;;;;2.67;2.00;;;21.20;1.00;;;;;;6317881;28;20917;-54
2022/06/15 08:02:59;;;;;;;6.03;2.20;;;21.30;1.00;;;;;;6329598;28;20313;-55
2022/06/15 08:06:01;;;;;;;1.77;1.73;;;21.30;1.00;;;;;;6326668;28;20285;-56
2022/06/15 08:09:05;;;;;;;2.40;2.30;;;21.40;1.00;;;;;;6316026;28;20877;-56
2022/06/15 08:12:15;;;;;;;2.50;2.30;;;21.40;1.00;;;;;;6318904;28;20715;-54
2022/06/15 08:15:19;;;;;;;5.50;2.63;;;21.50;1.00;;;;;;6321191;28;20238;-56
2022/06/15 08:18:26;;;;;;;2.03;1.93;;;21.50;1.00;;;;;;6320730;28;20232;-57
2022/06/15 08:21:34;;;;;;;2.43;2.23;;;21.50;1.00;;;;;;6323989;28;20231;-56
2022/06/15 08:24:38;;;;;;;3.63;2.40;;;21.60;1.00;;;;;;6286973;28;20237;-53
2022/06/15 08:27:43;;;;;;;5.27;2.47;;;21.50;1.00;;;;;;6316444;28;20254;-56
2022/06/15 08:30:47;;;;;;;3.77;2.20;;;21.60;1.00;;;;;;6322759;28;20565;-56
2022/06/15 08:33:51;;;;;;;2.13;1.93;;;21.70;1.00;;;;;;6320711;28;20599;-56
2022/06/15 08:36:54;;;;;;;4.33;2.60;;;21.80;1.00;;;;;;6327800;28;20672;-56
2022/06/15 08:39:57;;;;;;;6.00;2.27;;;21.90;1.00;;;;;;6324997;28;20231;-56
2022/06/15 08:43:07;;;;;;;2.13;2.03;;;22.10;1.00;;;;;;6320979;28;20878;-56
2022/06/15 08:46:32;;;;;;;2.43;2.23;;;22.20;1.00;;;;;;6325386;28;20387;-56
2022/06/15 08:49:47;;;;;;;2.13;2.03;;;22.30;1.00;;;;;;6313512;28;20315;-56
2022/06/15 08:52:57;;;;;;;2.33;2.20;;;22.30;1.00;;;;;;6318967;27;20474;-56
2022/06/15 08:56:05;;;;;;;5.73;2.40;;;22.60;1.00;;;;;;6322880;28;20229;-56
2022/06/15 08:59:17;;;;;;;2.57;2.37;;;22.60;1.00;;;;;;6331715;27;20326;-55
2022/06/15 09:02:25;;;;;;;2.97;2.60;;;22.80;1.00;;;;;;6332051;27;20598;-56
2022/06/15 09:05:35;;;;;;;2.43;2.33;;;23.10;1.00;;;;;;6335552;27;20248;-60
2022/06/15 09:09:03;;;;;;;2.20;2.10;;;23.20;1.00;;;;;;6318447;27;20500;-55
2022/06/15 09:15:51;;;;;;;2.90;2.80;;;23.60;1.00;;;;;;6333011;28;20228;-56
2022/06/15 09:19:01;;;;;;;3.63;2.50;;;23.50;1.00;;;;;;6325811;28;20311;-55
2022/06/15 09:22:08;;;;;;;5.83;2.67;;;23.50;1.00;;;;;;6336110;27;20228;-56
2022/06/15 09:25:17;;;;;;;5.63;2.60;;;23.40;1.00;;;;;;6332378;28;20228;-58
2022/06/15 09:28:26;;;;;;;2.53;2.40;;;23.50;1.00;;;;;;6325951;27;20369;-55
2022/06/15 09:31:38;;;;;;;2.90;2.60;;;23.40;1.00;;;;;;6332158;28;20240;-55
2022/06/15 09:34:44;;;;;;;4.93;2.80;;;23.30;1.00;;;;;;6327911;28;20643;-55
2022/06/15 09:37:51;;;;;;;2.70;2.30;;;23.40;1.00;;;;;;6337343;27;20737;-55
2022/06/15 09:40:57;;;;;;;4.33;2.80;;;23.60;1.00;;;;;;6325345;27;20239;-55
2022/06/15 09:44:10;;;;;;;3.53;2.83;;;23.60;1.00;;;;;;6332662;28;20330;-56
2022/06/15 09:47:45;;;;;;;3.77;2.97;;;23.60;1.00;;;;;;6327151;28;20692;-57
2022/06/15 09:50:56;;;;;;;6.73;3.03;;;23.50;1.00;;;;;;6322519;28;20240;-56
2022/06/15 09:54:05;;;;;;;6.03;2.83;;;23.50;1.00;;;;;;6320071;28;20311;-57
2022/06/15 09:57:09;;;;;;;5.73;2.80;;;23.30;1.00;;;;;;6322891;28;20407;-55
2022/06/15 10:00:15;;;;;;;2.80;2.57;;;23.40;1.00;;;;;;6323264;28;20401;-56
2022/06/15 10:03:24;;;;;;;3.27;2.57;;;23.40;1.00;;;;;;6314084;27;20460;-57
2022/06/15 10:06:32;;;;;;;3.07;2.77;;;23.60;1.00;;;;;;6320844;28;20246;-56
2022/06/15 10:09:40;;;;;;;4.93;2.93;;;23.60;1.00;;;;;;6305052;28;20240;-57
2022/06/15 10:12:57;;;;;;;2.90;2.30;;;23.50;1.00;;;;;;6315205;28;20922;-56
2022/06/15 10:16:03;;;;;;;3.17;2.80;;;23.60;1.00;;;;;;6306184;28;20717;-54
2022/06/15 10:19:09;;;;;;;5.47;2.93;;;23.50;1.00;;;;;;6328192;28;20228;-59
2022/06/15 10:22:23;;;;;;;3.73;3.23;;;23.40;1.00;;;;;;6333253;27;20319;-56
2022/06/15 10:25:30;;;;;;;3.50;3.13;;;23.30;1.00;;;;;;6330093;28;20381;-56
2022/06/15 10:28:35;;;;;;;4.53;2.63;;;23.30;1.00;;;;;;6327515;28;20232;-56
2022/06/15 10:31:38;;;;;;;3.10;2.90;;;23.30;1.00;;;;;;6329556;28;20637;-55
2022/06/15 10:34:55;;;;;;;4.63;3.07;;;23.20;1.00;;;;;;6324297;28;20545;-56
2022/06/15 10:38:01;;;;;;;8.73;3.03;;;23.00;1.00;;;;;;6333108;27;20236;-56
2022/06/15 10:44:30;;;;;;;3.43;2.63;;;23.10;1.00;;;;;;6328079;28;20704;-56
2022/06/15 10:47:41;;;;;;;3.03;2.80;;;23.40;1.00;;;;;;6324490;28;20387;-56
2022/06/15 10:50:51;;;;;;;3.13;2.80;;;23.30;1.00;;;;;;6322969;28;20246;-54
2022/06/15 10:54:21;;;;;;;3.07;2.80;;;23.30;1.00;;;;;;6326704;28;20690;-57
2022/06/15 11:04:20;;;;;;;4.37;3.53;;;23.70;1.00;;;;;;6322721;28;20225;-56
2022/06/15 11:07:35;;;;;;;6.77;3.17;;;23.70;1.00;;;;;;6326180;28;20235;-55
2022/06/15 11:10:40;;;;;;;4.40;3.07;;;23.50;1.00;;;;;;6323568;28;20260;-55
2022/06/15 11:13:52;;;;;;;3.93;3.13;;;23.50;1.00;;;;;;6329063;28;20244;-56
2022/06/15 11:20:43;;;;;;;3.83;2.67;;;23.70;1.00;;;;;;6328154;27;20223;-54
2022/06/15 11:23:54;;;;;;;3.70;2.80;;;24.00;1.00;;;;;;6325328;28;20315;-55
2022/06/15 11:27:03;;;;;;;4.83;3.17;;;24.10;1.00;;;;;;6325100;28;20263;-55
2022/06/15 11:30:17;;;;;;;4.60;3.40;;;24.30;1.00;;;;;;6327209;28;20267;-55
2022/06/15 11:33:25;;;;;;;3.37;3.07;;;24.30;1.00;;;;;;6317947;28;20297;-55
2022/06/15 11:36:32;;;;;;;3.53;3.23;;;24.40;1.00;;;;;;6331920;28;20370;-56
2022/06/15 11:39:41;;;;;;;3.47;3.00;;;24.60;1.00;;;;;;6316395;28;20248;-56
2022/06/15 11:42:48;;;;;;;3.57;3.27;;;24.60;1.00;;;;;;6324814;28;20558;-55
2022/06/15 11:46:16;;;;;;;6.17;3.30;;;24.70;1.00;;;;;;6321382;28;20299;-56
2022/06/15 11:49:31;;;;;;;3.87;3.57;;;24.80;1.00;;;;;;6325047;28;20244;-56
2022/06/15 11:52:48;;;;;;;4.07;3.27;;;24.80;1.00;;;;;;6322610;28;20322;-55
2022/06/15 11:55:57;;;;;;;5.27;3.57;;;24.80;1.00;;;;;;6321251;28;20281;-58
2022/06/15 11:59:06;;;;;;;6.30;3.50;;;24.80;1.00;;;;;;6328315;28;20370;-56
2022/06/15 12:02:41;;;;;;;5.73;3.53;;;24.90;1.00;;;;;;6320727;28;20247;-55
2022/06/15 12:05:48;;;;;;;3.73;3.37;;;25.10;1.00;;;;;;6322330;28;20232;-55
2022/06/15 12:08:59;;;;;;;4.50;3.63;;;25.10;1.00;;;;;;6312653;28;20373;-55
2022/06/15 12:15:36;;;;;;;5.70;3.80;;;25.40;1.00;;;;;;6321484;28;20478;-56
2022/06/15 12:18:51;;;;;;;3.63;3.33;;;25.50;1.00;;;;;;6310784;28;20324;-61
2022/06/15 12:21:59;;;;;;;6.50;3.33;;;25.40;1.00;;;;;;6322747;28;20323;-54
2022/06/15 12:25:10;;;;;;;6.10;3.40;;;25.40;1.00;;;;;;6323586;28;20225;-54
2022/06/15 12:28:24;;;;;;;3.10;2.93;;;25.40;1.00;;;;;;6331351;28;20228;-56
2022/06/15 12:31:36;;;;;;;6.40;3.20;;;25.50;1.00;;;;;;6335351;28;20769;-54
2022/06/15 12:34:46;;;;;;;5.43;3.80;;;25.50;1.00;;;;;;6333595;28;20332;-56
2022/06/15 12:37:57;;;;;;;5.87;3.17;;;25.60;1.00;;;;;;6331091;28;20381;-56
2022/06/15 12:41:06;;;;;;;4.30;3.47;;;25.50;1.00;;;;;;6324919;28;20852;-56
2022/06/15 12:44:23;;;;;;;8.57;3.50;;;25.40;1.00;;;;;;6320871;28;20370;-55
2022/06/15 12:47:28;;;;;;;8.70;3.73;;;25.40;1.00;;;;;;6330953;28;20232;-56
2022/06/15 12:50:40;;;;;;;6.87;3.97;;;25.50;1.00;;;;;;6323166;27;20715;-56
2022/06/15 12:53:58;;;;;;;3.27;3.00;;;25.50;1.00;;;;;;6328456;28;20703;-56
2022/06/15 12:57:07;;;;;;;5.07;3.50;;;25.50;1.00;;;;;;6326659;28;20232;-55
2022/06/15 13:00:19;;;;;;;7.50;3.50;;;25.70;1.00;;;;;;6330665;28;20922;-55
2022/06/15 13:03:42;;;;;;;6.57;3.30;;;25.70;1.00;;;;;;6334460;28;20736;-54
2022/06/15 13:06:45;;;;;;;4.00;3.30;;;25.80;1.00;;;;;;6325237;28;20705;-55
2022/06/15 13:10:13;;;;;;;5.80;3.83;;;25.90;1.00;;;;;;6327712;28;20759;-56
2022/06/15 13:13:25;;;;;;;4.43;3.73;;;25.80;1.00;;;;;;6320474;28;20235;-55
2022/06/15 13:16:36;;;;;;;8.47;3.37;;;25.90;1.00;;;;;;6325178;27;20324;-55
2022/06/15 13:19:42;;;;;;;4.13;3.83;;;25.90;1.00;;;;;;6325630;28;20243;-56
2022/06/15 13:22:48;;;;;;;5.20;3.33;;;25.90;1.00;;;;;;6329377;28;20369;-56
2022/06/15 13:25:52;;;;;;;3.40;3.20;;;26.00;1.00;;;;;;6322218;28;20232;-55
2022/06/15 13:29:22;;;;;;;4.00;3.57;;;26.00;1.00;;;;;;6327402;28;20287;-55
2022/06/15 13:32:59;;;;;;;8.60;4.30;;;26.10;1.00;;;;;;6322800;28;20235;-55
2022/06/15 13:36:21;;;;;;;7.43;3.60;;;26.20;1.00;;;;;;6340865;27;20263;-55
2022/06/15 13:39:26;;;;;;;5.87;3.43;;;26.30;1.00;;;;;;6320122;28;20315;-55
2022/06/15 13:42:37;;;;;;;3.80;3.40;;;26.30;1.00;;;;;;6334865;27;20319;-55
2022/06/15 13:45:42;;;;;;;4.83;3.53;;;26.30;1.00;;;;;;6326274;27;20239;-56
2022/06/15 13:48:47;;;;;;;3.30;3.10;;;26.20;1.00;;;;;;6326123;27;21847;-55
2022/06/15 13:51:55;;;;;;;3.90;3.60;;;26.20;1.00;;;;;;6310165;28;20563;-54
2022/06/15 13:55:22;;;;;;;3.57;2.80;;;26.20;1.00;;;;;;6317290;28;20327;-56
2022/06/15 13:58:51;;;;;;;3.57;3.27;;;26.20;1.00;;;;;;6323126;27;20847;-55
2022/06/15 14:02:09;;;;;;;5.60;2.93;;;26.00;1.00;;;;;;6338742;27;20227;-55
2022/06/15 14:05:38;;;;;;;3.43;3.13;;;26.10;1.00;;;;;;6329928;27;20323;-55
2022/06/15 14:09:15;;;;;;;4.93;3.33;;;26.10;1.00;;;;;;6332172;27;20784;-54
2022/06/15 14:12:32;;;;;;;5.80;3.07;;;25.90;1.00;;;;;;6328840;27;20325;-55
2022/06/15 14:15:49;;;;;;;3.30;3.20;;;25.90;1.00;;;;;;6333529;27;20228;-56
2022/06/15 14:18:55;;;;;;;3.57;3.40;;;25.90;1.00;;;;;;6329324;27;20614;-56
2022/06/15 14:22:06;;;;;;;7.20;3.17;;;26.00;1.00;;;;;;6319129;28;20412;-56
2022/06/15 14:25:16;;;;;;;3.47;3.00;;;26.20;1.00;;;;;;6335186;27;20236;-54
2022/06/15 14:28:23;;;;;;;4.83;3.23;;;26.40;1.00;;;;;;6334290;27;20705;-55
2022/06/15 14:31:28;;;;;;;7.23;3.57;;;26.50;1.00;;;;;;6327827;27;20702;-55
2022/06/15 14:34:33;;;;;;;3.53;3.20;;;26.60;1.00;;;;;;6330899;28;20735;-55
2022/06/15 14:37:37;;;;;;;4.27;2.50;;;26.60;1.00;;;;;;6333074;27;20407;-55
2022/06/15 14:40:44;;;;;;;3.50;3.20;;;26.60;1.00;;;;;;6315132;28;20240;-55
2022/06/15 14:43:51;;;;;;;3.17;2.97;;;26.70;1.00;;;;;;6326556;27;20315;-55
2022/06/15 14:46:58;;;;;;;3.47;2.73;;;26.80;1.00;;;;;;6334442;27;20254;-56
2022/06/15 14:50:01;;;;;;;3.40;3.20;;;26.90;1.00;;;;;;6312984;28;20240;-55
2022/06/15 14:53:11;;;;;;;6.73;3.20;;;26.90;1.00;;;;;;6329072;28;20266;-56
2022/06/15 14:56:14;;;;;;;3.27;3.03;;;27.00;1.00;;;;;;6335507;27;20228;-56
2022/06/15 14:59:20;;;;;;;3.43;3.23;;;26.90;1.00;;;;;;6318702;28;20259;-56
2022/06/15 15:02:23;;;;;;;4.50;3.97;;;26.90;1.00;;;;;;6337568;27;20228;-55
2022/06/15 15:05:29;;;;;;;4.53;3.17;;;26.80;1.00;;;;;;6321649;28;20254;-55
2022/06/15 15:08:40;;;;;;;3.67;3.37;;;26.80;1.00;;;;;;6314834;28;20371;-56
2022/06/15 15:11:44;;;;;;;4.50;3.40;;;26.90;1.00;;;;;;6325054;28;20232;-55
2022/06/15 15:14:51;;;;;;;3.70;3.40;;;27.00;1.00;;;;;;6323171;28;20317;-54
2022/06/15 15:17:57;;;;;;;3.67;3.37;;;27.10;1.00;;;;;;6329344;27;20369;-54
2022/06/15 15:21:20;;;;;;;9.47;3.30;;;27.20;1.00;;;;;;6327307;27;20239;-55
2022/06/15 15:24:30;;;;;;;2.80;2.67;;;27.00;1.00;;;;;;6326836;28;20282;-55
2022/06/15 15:35:00;;;;;;;3.10;2.80;;;26.90;1.00;;;;;;6313519;28;20369;-56
2022/06/15 15:38:23;;;;;;;3.30;3.00;;;26.80;1.00;;;;;;6311040;28;20762;-55
2022/06/15 15:41:27;;;;;;;2.83;2.70;;;26.80;1.00;;;;;;6315082;28;20235;-54
2022/06/15 15:44:31;;;;;;;3.23;2.93;;;26.90;1.00;;;;;;6333803;28;20546;-55
2022/06/15 15:47:35;;;;;;;3.53;2.60;;;27.00;1.00;;;;;;6328579;28;20233;-55
2022/06/15 15:50:38;;;;;;;3.13;2.90;;;27.00;1.00;;;;;;6330205;28;20637;-54
2022/06/15 15:53:41;;;;;;;5.70;3.00;;;27.00;1.00;;;;;;6328335;28;20547;-56
2022/06/15 15:56:46;;;;;;;3.80;3.43;;;26.90;1.00;;;;;;6328453;28;20322;-54
2022/06/15 15:59:50;;;;;;;3.87;3.17;;;26.90;1.00;;;;;;6333969;27;20252;-54
2022/06/15 16:03:00;;;;;;;3.60;3.30;;;26.90;1.00;;;;;;6298630;28;20242;-55
2022/06/15 16:06:03;;;;;;;3.53;3.10;;;26.90;1.00;;;;;;6328381;27;20716;-55
2022/06/15 16:09:09;;;;;;;3.53;3.30;;;26.80;1.00;;;;;;6325058;28;20458;-56
2022/06/15 16:12:17;;;;;;;3.40;3.17;;;26.80;1.00;;;;;;6333528;28;20322;-55
2022/06/15 16:15:20;;;;;;;3.83;3.10;;;26.80;1.00;;;;;;6349325;27;20678;-56
2022/06/15 16:18:24;;;;;;;4.00;3.10;;;26.80;1.00;;;;;;6334445;27;20239;-56
2022/06/15 16:21:28;;;;;;;3.97;3.57;;;26.90;1.00;;;;;;6333412;27;20300;-56
2022/06/15 16:24:33;;;;;;;4.30;3.70;;;26.80;1.00;;;;;;6345771;27;20235;-54
2022/06/15 16:27:39;;;;;;;7.37;3.80;;;26.70;1.00;;;;;;6331155;28;20775;-54
2022/06/15 16:30:42;;;;;;;3.90;3.60;;;26.60;1.00;;;;;;6337668;27;20236;-54
2022/06/15 16:33:45;;;;;;;3.70;3.03;;;26.50;1.00;;;;;;6335646;27;20306;-54
2022/06/15 16:36:48;;;;;;;5.40;3.53;;;26.30;1.00;;;;;;6332601;27;20232;-52
2022/06/15 16:39:51;;;;;;;3.53;3.23;;;26.20;1.00;;;;;;6334117;27;20236;-54
2022/06/15 16:42:55;;;;;;;4.00;3.30;;;26.10;1.00;;;;;;6332596;27;20237;-56
2022/06/15 16:45:58;;;;;;;3.37;3.20;;;26.10;1.00;;;;;;6332977;28;20259;-58
2022/06/15 16:49:02;;;;;;;4.07;3.50;;;26.10;1.00;;;;;;6325648;28;20281;-55
2022/06/15 16:52:06;;;;;;;3.20;3.00;;;26.10;1.00;;;;;;6351593;27;20423;-55
2022/06/15 16:55:14;;;;;;;2.97;2.77;;;26.00;1.00;;;;;;6332589;27;20236;-55
2022/06/15 16:58:21;;;;;;;4.40;3.30;;;25.90;1.00;;;;;;6329127;27;20800;-56
2022/06/15 17:01:25;;;;;;;3.40;3.20;;;25.90;1.00;;;;;;6336887;27;20235;-56